sensor_id;sensor_type;location;lat;lon;timestamp;P1;durP1;ratioP1;P2;durP2;ratioP2
11709;SDS011;5911;51.036;6.972;2024-02-21T00:01:58;12.80;;;7.03;;
11709;SDS011;5911;51.036;6.972;2024-02-21T00:04:26;10.52;;;6.47;;
11709;SDS011;5911;51.036;6.972;2024-02-21T00:06:54;11.57;;;6.30;;
11709;SDS011;5911;51.036;6.972;2024-02-21T00:09:21;10.63;;;5.90;;
11709;SDS011;5911;51.036;6.972;2024-02-21T00:11:50;11.38;;;6.35;;
11709;SDS011;5911;51.036;6.972;2024-02-21T00:14:17;12.98;;;6.70;;
11709;SDS011;5911;51.036;6.972;2024-02-21T00:16:45;13.30;;;6.33;;
11709;SDS011;5911;51.036;6.972;2024-02-21T00:19:12;11.98;;;6.30;;
11709;SDS011;5911;51.036;6.972;2024-02-21T00:21:41;12.13;;;6.30;;
11709;SDS011;5911;51.036;6.972;2024-02-21T00:24:08;10.07;;;5.60;;
11709;SDS011;5911;51.036;6.972;2024-02-21T00:26:36;10.88;;;6.10;;
11709;SDS011;5911;51.036;6.972;2024-02-21T00:29:04;10.30;;;5.97;;
11709;SDS011;5911;51.036;6.972;2024-02-21T00:31:34;11.25;;;5.88;;
11709;SDS011;5911;51.036;6.972;2024-02-21T00:34:02;10.20;;;5.17;;
11709;SDS011;5911;51.036;6.972;2024-02-21T00:36:29;15.05;;;6.32;;
11709;SDS011;5911;51.036;6.972;2024-02-21T00:38:57;13.82;;;6.28;;
11709;SDS011;5911;51.036;6.972;2024-02-21T00:41:24;16.97;;;7.20;;
11709;SDS011;5911;51.036;6.972;2024-02-21T00:43:52;11.95;;;6.63;;
11709;SDS011;5911;51.036;6.972;2024-02-21T00:46:21;11.73;;;5.85;;
11709;SDS011;5911;51.036;6.972;2024-02-21T00:48:48;13.43;;;6.82;;
11709;SDS011;5911;51.036;6.972;2024-02-21T00:51:17;13.30;;;6.72;;
11709;SDS011;5911;51.036;6.972;2024-02-21T00:53:44;11.13;;;6.30;;
11709;SDS011;5911;51.036;6.972;2024-02-21T00:56:11;13.17;;;6.63;;
11709;SDS011;5911;51.036;6.972;2024-02-21T00:58:39;13.17;;;7.13;;
11709;SDS011;5911;51.036;6.972;2024-02-21T01:01:07;11.47;;;5.97;;
11709;SDS011;5911;51.036;6.972;2024-02-21T01:03:35;11.63;;;6.50;;
11709;SDS011;5911;51.036;6.972;2024-02-21T01:06:03;11.50;;;6.50;;
11709;SDS011;5911;51.036;6.972;2024-02-21T01:08:31;11.10;;;6.72;;
11709;SDS011;5911;51.036;6.972;2024-02-21T01:10:58;12.73;;;6.85;;
11709;SDS011;5911;51.036;6.972;2024-02-21T01:13:26;12.67;;;6.80;;
11709;SDS011;5911;51.036;6.972;2024-02-21T01:15:53;10.80;;;6.60;;
11709;SDS011;5911;51.036;6.972;2024-02-21T01:18:21;10.38;;;6.88;;
11709;SDS011;5911;51.036;6.972;2024-02-21T01:20:50;13.18;;;7.45;;
11709;SDS011;5911;51.036;6.972;2024-02-21T01:23:17;11.77;;;7.17;;
11709;SDS011;5911;51.036;6.972;2024-02-21T01:25:45;12.87;;;6.63;;
11709;SDS011;5911;51.036;6.972;2024-02-21T01:28:12;11.13;;;6.63;;
11709;SDS011;5911;51.036;6.972;2024-02-21T01:30:40;15.90;;;7.78;;
11709;SDS011;5911;51.036;6.972;2024-02-21T01:33:07;15.70;;;7.78;;
11709;SDS011;5911;51.036;6.972;2024-02-21T01:35:35;12.17;;;6.90;;
11709;SDS011;5911;51.036;6.972;2024-02-21T01:38:04;11.70;;;6.70;;
11709;SDS011;5911;51.036;6.972;2024-02-21T01:40:32;11.55;;;6.97;;
11709;SDS011;5911;51.036;6.972;2024-02-21T01:42:59;11.13;;;7.25;;
11709;SDS011;5911;51.036;6.972;2024-02-21T01:45:27;10.87;;;6.13;;
11709;SDS011;5911;51.036;6.972;2024-02-21T01:47:54;14.77;;;7.57;;
11709;SDS011;5911;51.036;6.972;2024-02-21T01:50:22;11.23;;;7.32;;
11709;SDS011;5911;51.036;6.972;2024-02-21T01:52:50;12.07;;;6.60;;
11709;SDS011;5911;51.036;6.972;2024-02-21T01:55:20;11.63;;;6.72;;
11709;SDS011;5911;51.036;6.972;2024-02-21T01:57:48;13.53;;;7.07;;
11709;SDS011;5911;51.036;6.972;2024-02-21T02:00:15;9.38;;;6.13;;
11709;SDS011;5911;51.036;6.972;2024-02-21T02:02:43;8.83;;;5.70;;
11709;SDS011;5911;51.036;6.972;2024-02-21T02:05:11;11.07;;;6.00;;
11709;SDS011;5911;51.036;6.972;2024-02-21T02:07:38;11.98;;;5.97;;
11709;SDS011;5911;51.036;6.972;2024-02-21T02:10:06;13.97;;;7.27;;
11709;SDS011;5911;51.036;6.972;2024-02-21T02:12:35;10.93;;;6.10;;
11709;SDS011;5911;51.036;6.972;2024-02-21T02:15:03;12.45;;;6.15;;
11709;SDS011;5911;51.036;6.972;2024-02-21T02:17:31;10.07;;;6.30;;
11709;SDS011;5911;51.036;6.972;2024-02-21T02:19:59;12.83;;;6.63;;
11709;SDS011;5911;51.036;6.972;2024-02-21T02:22:28;10.80;;;5.97;;
11709;SDS011;5911;51.036;6.972;2024-02-21T02:24:57;10.30;;;6.65;;
11709;SDS011;5911;51.036;6.972;2024-02-21T02:27:25;12.35;;;7.43;;
11709;SDS011;5911;51.036;6.972;2024-02-21T02:29:52;11.50;;;6.93;;
11709;SDS011;5911;51.036;6.972;2024-02-21T02:32:20;14.70;;;6.53;;
11709;SDS011;5911;51.036;6.972;2024-02-21T02:34:48;10.98;;;6.55;;
11709;SDS011;5911;51.036;6.972;2024-02-21T02:37:15;13.32;;;6.68;;
11709;SDS011;5911;51.036;6.972;2024-02-21T02:39:43;11.75;;;6.90;;
11709;SDS011;5911;51.036;6.972;2024-02-21T02:42:11;15.23;;;6.28;;
11709;SDS011;5911;51.036;6.972;2024-02-21T02:44:39;10.43;;;6.60;;
11709;SDS011;5911;51.036;6.972;2024-02-21T02:47:06;11.68;;;6.13;;
11709;SDS011;5911;51.036;6.972;2024-02-21T02:49:34;11.20;;;5.90;;
11709;SDS011;5911;51.036;6.972;2024-02-21T02:52:01;11.27;;;6.22;;
11709;SDS011;5911;51.036;6.972;2024-02-21T02:54:29;13.13;;;6.67;;
11709;SDS011;5911;51.036;6.972;2024-02-21T02:56:56;11.90;;;6.15;;
11709;SDS011;5911;51.036;6.972;2024-02-21T02:59:25;10.48;;;6.20;;
11709;SDS011;5911;51.036;6.972;2024-02-21T03:01:53;11.45;;;5.53;;
11709;SDS011;5911;51.036;6.972;2024-02-21T03:04:20;11.55;;;5.63;;
11709;SDS011;5911;51.036;6.972;2024-02-21T03:06:48;13.45;;;5.85;;
11709;SDS011;5911;51.036;6.972;2024-02-21T03:09:15;8.88;;;5.72;;
11709;SDS011;5911;51.036;6.972;2024-02-21T03:11:43;12.77;;;5.57;;
11709;SDS011;5911;51.036;6.972;2024-02-21T03:14:11;9.50;;;5.33;;
11709;SDS011;5911;51.036;6.972;2024-02-21T03:16:40;13.47;;;5.53;;
11709;SDS011;5911;51.036;6.972;2024-02-21T03:19:07;10.13;;;5.70;;
11709;SDS011;5911;51.036;6.972;2024-02-21T03:21:35;12.23;;;5.78;;
11709;SDS011;5911;51.036;6.972;2024-02-21T03:24:03;9.48;;;5.38;;
11709;SDS011;5911;51.036;6.972;2024-02-21T03:26:30;9.20;;;5.33;;
11709;SDS011;5911;51.036;6.972;2024-02-21T03:28:58;8.85;;;5.63;;
11709;SDS011;5911;51.036;6.972;2024-02-21T03:31:25;9.93;;;5.73;;
11709;SDS011;5911;51.036;6.972;2024-02-21T03:33:59;11.43;;;4.97;;
11709;SDS011;5911;51.036;6.972;2024-02-21T03:36:26;9.93;;;5.35;;
11709;SDS011;5911;51.036;6.972;2024-02-21T03:38:54;10.25;;;5.72;;
11709;SDS011;5911;51.036;6.972;2024-02-21T03:41:22;14.23;;;5.65;;
11709;SDS011;5911;51.036;6.972;2024-02-21T03:43:49;7.80;;;4.97;;
11709;SDS011;5911;51.036;6.972;2024-02-21T03:46:17;9.45;;;4.72;;
11709;SDS011;5911;51.036;6.972;2024-02-21T03:48:44;9.23;;;5.13;;
11709;SDS011;5911;51.036;6.972;2024-02-21T03:51:13;9.73;;;5.03;;
11709;SDS011;5911;51.036;6.972;2024-02-21T03:53:41;8.37;;;5.33;;
11709;SDS011;5911;51.036;6.972;2024-02-21T03:56:08;12.20;;;5.33;;
11709;SDS011;5911;51.036;6.972;2024-02-21T03:58:36;9.63;;;4.95;;
11709;SDS011;5911;51.036;6.972;2024-02-21T04:01:03;10.30;;;4.80;;
11709;SDS011;5911;51.036;6.972;2024-02-21T04:03:31;11.15;;;5.40;;
11709;SDS011;5911;51.036;6.972;2024-02-21T04:05:59;8.33;;;4.87;;
11709;SDS011;5911;51.036;6.972;2024-02-21T04:08:28;9.07;;;5.40;;
11709;SDS011;5911;51.036;6.972;2024-02-21T04:10:55;10.80;;;4.90;;
11709;SDS011;5911;51.036;6.972;2024-02-21T04:13:23;7.27;;;4.73;;
11709;SDS011;5911;51.036;6.972;2024-02-21T04:15:51;7.50;;;4.57;;
11709;SDS011;5911;51.036;6.972;2024-02-21T04:18:19;6.78;;;4.32;;
11709;SDS011;5911;51.036;6.972;2024-02-21T04:20:47;5.22;;;3.97;;
11709;SDS011;5911;51.036;6.972;2024-02-21T04:23:14;9.13;;;4.47;;
11709;SDS011;5911;51.036;6.972;2024-02-21T04:25:43;7.43;;;4.67;;
11709;SDS011;5911;51.036;6.972;2024-02-21T04:28:10;8.45;;;4.43;;
11709;SDS011;5911;51.036;6.972;2024-02-21T04:30:38;7.28;;;4.47;;
11709;SDS011;5911;51.036;6.972;2024-02-21T04:33:05;10.30;;;4.70;;
11709;SDS011;5911;51.036;6.972;2024-02-21T04:35:33;10.50;;;4.87;;
11709;SDS011;5911;51.036;6.972;2024-02-21T04:38:00;8.70;;;4.50;;
11709;SDS011;5911;51.036;6.972;2024-02-21T04:40:28;9.35;;;4.30;;
11709;SDS011;5911;51.036;6.972;2024-02-21T04:42:58;9.00;;;5.03;;
11709;SDS011;5911;51.036;6.972;2024-02-21T04:45:25;6.72;;;4.35;;
11709;SDS011;5911;51.036;6.972;2024-02-21T04:47:52;6.70;;;4.20;;
11709;SDS011;5911;51.036;6.972;2024-02-21T04:50:20;9.87;;;4.77;;
11709;SDS011;5911;51.036;6.972;2024-02-21T04:52:48;8.27;;;4.47;;
11709;SDS011;5911;51.036;6.972;2024-02-21T04:55:15;7.70;;;4.50;;
11709;SDS011;5911;51.036;6.972;2024-02-21T04:57:43;11.03;;;4.67;;
11709;SDS011;5911;51.036;6.972;2024-02-21T05:00:13;7.32;;;4.38;;
11709;SDS011;5911;51.036;6.972;2024-02-21T05:02:40;7.95;;;4.35;;
11709;SDS011;5911;51.036;6.972;2024-02-21T05:05:08;9.25;;;4.80;;
11709;SDS011;5911;51.036;6.972;2024-02-21T05:07:36;8.27;;;5.10;;
11709;SDS011;5911;51.036;6.972;2024-02-21T05:10:03;8.38;;;4.70;;
11709;SDS011;5911;51.036;6.972;2024-02-21T05:12:31;11.13;;;5.30;;
11709;SDS011;5911;51.036;6.972;2024-02-21T05:14:58;11.68;;;4.45;;
11709;SDS011;5911;51.036;6.972;2024-02-21T05:17:27;9.02;;;5.00;;
11709;SDS011;5911;51.036;6.972;2024-02-21T05:19:55;9.57;;;4.70;;
11709;SDS011;5911;51.036;6.972;2024-02-21T05:22:22;11.18;;;5.90;;
11709;SDS011;5911;51.036;6.972;2024-02-21T05:24:50;9.35;;;5.45;;
11709;SDS011;5911;51.036;6.972;2024-02-21T05:27:17;9.25;;;4.93;;
11709;SDS011;5911;51.036;6.972;2024-02-21T05:29:45;11.80;;;5.38;;
11709;SDS011;5911;51.036;6.972;2024-02-21T05:32:12;6.68;;;5.25;;
11709;SDS011;5911;51.036;6.972;2024-02-21T05:34:41;9.48;;;4.90;;
11709;SDS011;5911;51.036;6.972;2024-02-21T05:37:09;9.43;;;5.18;;
11709;SDS011;5911;51.036;6.972;2024-02-21T05:39:36;8.57;;;4.53;;
11709;SDS011;5911;51.036;6.972;2024-02-21T05:42:04;9.52;;;5.20;;
11709;SDS011;5911;51.036;6.972;2024-02-21T05:44:31;9.32;;;4.72;;
11709;SDS011;5911;51.036;6.972;2024-02-21T05:46:59;9.90;;;4.85;;
11709;SDS011;5911;51.036;6.972;2024-02-21T05:49:26;7.57;;;4.63;;
11709;SDS011;5911;51.036;6.972;2024-02-21T05:51:55;8.98;;;4.80;;
11709;SDS011;5911;51.036;6.972;2024-02-21T05:54:23;8.30;;;4.85;;
11709;SDS011;5911;51.036;6.972;2024-02-21T05:56:50;10.10;;;5.22;;
11709;SDS011;5911;51.036;6.972;2024-02-21T05:59:19;7.57;;;4.60;;
11709;SDS011;5911;51.036;6.972;2024-02-21T06:01:54;7.93;;;4.55;;
11709;SDS011;5911;51.036;6.972;2024-02-21T06:04:22;5.75;;;4.22;;
11709;SDS011;5911;51.036;6.972;2024-02-21T06:06:50;7.85;;;4.88;;
11709;SDS011;5911;51.036;6.972;2024-02-21T06:09:18;10.32;;;5.00;;
11709;SDS011;5911;51.036;6.972;2024-02-21T06:11:46;9.20;;;4.43;;
11709;SDS011;5911;51.036;6.972;2024-02-21T06:14:15;8.67;;;4.77;;
11709;SDS011;5911;51.036;6.972;2024-02-21T06:16:43;8.45;;;4.90;;
11709;SDS011;5911;51.036;6.972;2024-02-21T06:19:10;8.00;;;4.87;;
11709;SDS011;5911;51.036;6.972;2024-02-21T06:21:38;7.83;;;4.50;;
11709;SDS011;5911;51.036;6.972;2024-02-21T06:24:05;6.53;;;4.53;;
11709;SDS011;5911;51.036;6.972;2024-02-21T06:26:34;9.32;;;4.57;;
11709;SDS011;5911;51.036;6.972;2024-02-21T06:29:02;6.35;;;4.85;;
11709;SDS011;5911;51.036;6.972;2024-02-21T06:31:29;8.20;;;4.15;;
11709;SDS011;5911;51.036;6.972;2024-02-21T06:33:58;9.17;;;5.07;;
11709;SDS011;5911;51.036;6.972;2024-02-21T06:36:26;6.57;;;3.77;;
11709;SDS011;5911;51.036;6.972;2024-02-21T06:38:53;5.80;;;4.10;;
11709;SDS011;5911;51.036;6.972;2024-02-21T06:41:21;6.30;;;3.97;;
11709;SDS011;5911;51.036;6.972;2024-02-21T06:43:50;5.43;;;3.80;;
11709;SDS011;5911;51.036;6.972;2024-02-21T06:46:24;6.88;;;3.88;;
11709;SDS011;5911;51.036;6.972;2024-02-21T06:48:52;8.60;;;4.35;;
11709;SDS011;5911;51.036;6.972;2024-02-21T06:51:20;4.77;;;4.03;;
11709;SDS011;5911;51.036;6.972;2024-02-21T06:53:47;6.10;;;4.47;;
11709;SDS011;5911;51.036;6.972;2024-02-21T06:56:15;9.48;;;4.30;;
11709;SDS011;5911;51.036;6.972;2024-02-21T06:58:42;7.40;;;4.88;;
11709;SDS011;5911;51.036;6.972;2024-02-21T07:01:11;6.33;;;3.77;;
11709;SDS011;5911;51.036;6.972;2024-02-21T07:03:38;9.75;;;5.05;;
11709;SDS011;5911;51.036;6.972;2024-02-21T07:06:06;8.13;;;4.95;;
11709;SDS011;5911;51.036;6.972;2024-02-21T07:08:34;10.02;;;5.40;;
11709;SDS011;5911;51.036;6.972;2024-02-21T07:11:01;10.82;;;5.15;;
11709;SDS011;5911;51.036;6.972;2024-02-21T07:13:29;7.93;;;4.93;;
11709;SDS011;5911;51.036;6.972;2024-02-21T07:15:56;8.77;;;4.70;;
11709;SDS011;5911;51.036;6.972;2024-02-21T07:18:25;7.60;;;5.10;;
11709;SDS011;5911;51.036;6.972;2024-02-21T07:20:53;9.33;;;4.43;;
11709;SDS011;5911;51.036;6.972;2024-02-21T07:23:20;8.70;;;4.90;;
11709;SDS011;5911;51.036;6.972;2024-02-21T07:25:48;8.60;;;4.87;;
11709;SDS011;5911;51.036;6.972;2024-02-21T07:28:15;8.30;;;4.90;;
11709;SDS011;5911;51.036;6.972;2024-02-21T07:30:43;10.40;;;4.70;;
11709;SDS011;5911;51.036;6.972;2024-02-21T07:33:10;10.10;;;5.18;;
11709;SDS011;5911;51.036;6.972;2024-02-21T07:35:39;8.20;;;4.55;;
11709;SDS011;5911;51.036;6.972;2024-02-21T07:38:08;7.70;;;4.95;;
11709;SDS011;5911;51.036;6.972;2024-02-21T07:40:39;8.07;;;5.05;;
11709;SDS011;5911;51.036;6.972;2024-02-21T07:43:06;7.63;;;4.60;;
11709;SDS011;5911;51.036;6.972;2024-02-21T07:45:34;10.13;;;4.50;;
11709;SDS011;5911;51.036;6.972;2024-02-21T07:48:01;9.47;;;4.90;;
11709;SDS011;5911;51.036;6.972;2024-02-21T07:50:29;8.27;;;4.60;;
11709;SDS011;5911;51.036;6.972;2024-02-21T07:52:58;7.17;;;4.70;;
11709;SDS011;5911;51.036;6.972;2024-02-21T07:55:25;10.67;;;5.13;;
11709;SDS011;5911;51.036;6.972;2024-02-21T07:57:53;10.37;;;4.67;;
11709;SDS011;5911;51.036;6.972;2024-02-21T08:00:21;10.03;;;4.20;;
11709;SDS011;5911;51.036;6.972;2024-02-21T08:02:48;9.80;;;4.77;;
11709;SDS011;5911;51.036;6.972;2024-02-21T08:05:16;7.37;;;3.40;;
11709;SDS011;5911;51.036;6.972;2024-02-21T08:07:44;7.73;;;4.30;;
11709;SDS011;5911;51.036;6.972;2024-02-21T08:10:12;8.40;;;3.80;;
11709;SDS011;5911;51.036;6.972;2024-02-21T08:12:40;8.73;;;4.47;;
11709;SDS011;5911;51.036;6.972;2024-02-21T08:15:08;8.13;;;3.80;;
11709;SDS011;5911;51.036;6.972;2024-02-21T08:17:36;6.37;;;3.63;;
11709;SDS011;5911;51.036;6.972;2024-02-21T08:20:04;6.50;;;3.60;;
11709;SDS011;5911;51.036;6.972;2024-02-21T08:22:32;8.37;;;3.90;;
11709;SDS011;5911;51.036;6.972;2024-02-21T08:24:59;5.57;;;3.60;;
11709;SDS011;5911;51.036;6.972;2024-02-21T08:27:28;7.63;;;4.30;;
11709;SDS011;5911;51.036;6.972;2024-02-21T08:29:56;6.40;;;3.37;;
11709;SDS011;5911;51.036;6.972;2024-02-21T08:32:23;5.63;;;3.60;;
11709;SDS011;5911;51.036;6.972;2024-02-21T08:34:51;5.10;;;3.30;;
11709;SDS011;5911;51.036;6.972;2024-02-21T08:37:18;5.80;;;3.47;;
11709;SDS011;5911;51.036;6.972;2024-02-21T08:39:47;8.37;;;3.80;;
11709;SDS011;5911;51.036;6.972;2024-02-21T08:42:15;7.17;;;3.87;;
11709;SDS011;5911;51.036;6.972;2024-02-21T08:44:44;6.50;;;4.00;;
11709;SDS011;5911;51.036;6.972;2024-02-21T08:47:12;8.53;;;3.57;;
11709;SDS011;5911;51.036;6.972;2024-02-21T08:49:40;5.23;;;3.70;;
11709;SDS011;5911;51.036;6.972;2024-02-21T08:52:07;6.03;;;3.73;;
11709;SDS011;5911;51.036;6.972;2024-02-21T08:54:35;7.80;;;4.17;;
11709;SDS011;5911;51.036;6.972;2024-02-21T08:57:02;8.03;;;4.27;;
11709;SDS011;5911;51.036;6.972;2024-02-21T08:59:30;8.87;;;3.70;;
11709;SDS011;5911;51.036;6.972;2024-02-21T09:01:59;8.23;;;4.30;;
11709;SDS011;5911;51.036;6.972;2024-02-21T09:04:28;8.80;;;3.90;;
11709;SDS011;5911;51.036;6.972;2024-02-21T09:06:57;7.03;;;3.63;;
11709;SDS011;5911;51.036;6.972;2024-02-21T09:09:25;6.83;;;3.87;;
11709;SDS011;5911;51.036;6.972;2024-02-21T09:11:55;9.27;;;4.07;;
11709;SDS011;5911;51.036;6.972;2024-02-21T09:14:23;8.03;;;4.33;;
11709;SDS011;5911;51.036;6.972;2024-02-21T09:16:51;6.77;;;3.53;;
11709;SDS011;5911;51.036;6.972;2024-02-21T09:19:20;8.27;;;3.87;;
11709;SDS011;5911;51.036;6.972;2024-02-21T09:21:48;7.80;;;4.27;;
11709;SDS011;5911;51.036;6.972;2024-02-21T09:24:15;8.00;;;4.27;;
11709;SDS011;5911;51.036;6.972;2024-02-21T09:26:43;9.73;;;4.43;;
11709;SDS011;5911;51.036;6.972;2024-02-21T09:29:10;7.33;;;3.67;;
11709;SDS011;5911;51.036;6.972;2024-02-21T09:31:38;9.03;;;3.80;;
11709;SDS011;5911;51.036;6.972;2024-02-21T09:34:05;6.10;;;3.83;;
11709;SDS011;5911;51.036;6.972;2024-02-21T09:36:34;8.90;;;4.27;;
11709;SDS011;5911;51.036;6.972;2024-02-21T09:39:02;9.87;;;4.00;;
11709;SDS011;5911;51.036;6.972;2024-02-21T09:41:29;6.30;;;3.40;;
11709;SDS011;5911;51.036;6.972;2024-02-21T09:43:57;6.00;;;4.03;;
11709;SDS011;5911;51.036;6.972;2024-02-21T09:46:30;8.87;;;4.33;;
11709;SDS011;5911;51.036;6.972;2024-02-21T09:49:05;7.93;;;3.90;;
11709;SDS011;5911;51.036;6.972;2024-02-21T09:51:37;7.80;;;3.93;;
11709;SDS011;5911;51.036;6.972;2024-02-21T09:54:06;8.70;;;3.67;;
11709;SDS011;5911;51.036;6.972;2024-02-21T09:56:42;6.60;;;3.60;;
11709;SDS011;5911;51.036;6.972;2024-02-21T09:59:15;5.10;;;3.30;;
11709;SDS011;5911;51.036;6.972;2024-02-21T10:01:43;7.23;;;3.90;;
11709;SDS011;5911;51.036;6.972;2024-02-21T10:04:11;6.10;;;3.33;;
11709;SDS011;5911;51.036;6.972;2024-02-21T10:06:40;10.50;;;3.70;;
11709;SDS011;5911;51.036;6.972;2024-02-21T10:09:08;5.53;;;3.30;;
11709;SDS011;5911;51.036;6.972;2024-02-21T10:11:36;6.10;;;3.57;;
11709;SDS011;5911;51.036;6.972;2024-02-21T10:14:04;7.63;;;3.27;;
11709;SDS011;5911;51.036;6.972;2024-02-21T10:16:32;7.27;;;3.63;;
11709;SDS011;5911;51.036;6.972;2024-02-21T10:19:00;9.07;;;3.50;;
11709;SDS011;5911;51.036;6.972;2024-02-21T10:21:30;6.70;;;3.33;;
11709;SDS011;5911;51.036;6.972;2024-02-21T10:23:58;8.17;;;3.83;;
11709;SDS011;5911;51.036;6.972;2024-02-21T10:26:26;8.20;;;3.63;;
11709;SDS011;5911;51.036;6.972;2024-02-21T10:28:53;6.87;;;3.27;;
11709;SDS011;5911;51.036;6.972;2024-02-21T10:31:22;6.37;;;3.10;;
11709;SDS011;5911;51.036;6.972;2024-02-21T10:33:54;5.65;;;3.10;;
11709;SDS011;5911;51.036;6.972;2024-02-21T10:36:21;6.40;;;2.70;;
11709;SDS011;5911;51.036;6.972;2024-02-21T10:38:49;6.50;;;3.38;;
11709;SDS011;5911;51.036;6.972;2024-02-21T10:41:19;8.82;;;3.42;;
11709;SDS011;5911;51.036;6.972;2024-02-21T10:43:48;8.57;;;3.17;;
11709;SDS011;5911;51.036;6.972;2024-02-21T10:46:18;7.22;;;3.17;;
11709;SDS011;5911;51.036;6.972;2024-02-21T10:48:46;7.00;;;2.70;;
11709;SDS011;5911;51.036;6.972;2024-02-21T10:51:14;6.25;;;3.53;;
11709;SDS011;5911;51.036;6.972;2024-02-21T10:53:44;5.80;;;3.07;;
11709;SDS011;5911;51.036;6.972;2024-02-21T10:56:20;6.27;;;3.67;;
11709;SDS011;5911;51.036;6.972;2024-02-21T10:58:48;7.53;;;3.30;;
11709;SDS011;5911;51.036;6.972;2024-02-21T11:01:17;6.27;;;3.30;;
11709;SDS011;5911;51.036;6.972;2024-02-21T11:03:45;8.03;;;3.37;;
11709;SDS011;5911;51.036;6.972;2024-02-21T11:06:14;8.13;;;3.20;;
11709;SDS011;5911;51.036;6.972;2024-02-21T11:08:42;7.03;;;3.50;;
11709;SDS011;5911;51.036;6.972;2024-02-21T11:11:12;6.85;;;3.03;;
11709;SDS011;5911;51.036;6.972;2024-02-21T11:14:05;8.57;;;3.67;;
11709;SDS011;5911;51.036;6.972;2024-02-21T11:16:36;8.43;;;3.30;;
11709;SDS011;5911;51.036;6.972;2024-02-21T11:19:05;6.47;;;2.97;;
11709;SDS011;5911;51.036;6.972;2024-02-21T11:21:34;5.80;;;3.30;;
11709;SDS011;5911;51.036;6.972;2024-02-21T11:24:02;6.43;;;3.50;;
11709;SDS011;5911;51.036;6.972;2024-02-21T11:26:29;5.35;;;3.13;;
11709;SDS011;5911;51.036;6.972;2024-02-21T11:28:57;6.63;;;3.25;;
11709;SDS011;5911;51.036;6.972;2024-02-21T11:31:27;8.10;;;2.97;;
11709;SDS011;5911;51.036;6.972;2024-02-21T11:33:54;9.63;;;3.35;;
11709;SDS011;5911;51.036;6.972;2024-02-21T11:36:24;5.97;;;2.72;;
11709;SDS011;5911;51.036;6.972;2024-02-21T11:38:52;4.97;;;3.10;;
11709;SDS011;5911;51.036;6.972;2024-02-21T11:41:20;7.68;;;2.97;;
11709;SDS011;5911;51.036;6.972;2024-02-21T11:43:48;5.63;;;3.17;;
11709;SDS011;5911;51.036;6.972;2024-02-21T11:46:16;6.65;;;2.88;;
11709;SDS011;5911;51.036;6.972;2024-02-21T11:48:45;7.63;;;3.33;;
11709;SDS011;5911;51.036;6.972;2024-02-21T11:51:21;5.82;;;2.83;;
11709;SDS011;5911;51.036;6.972;2024-02-21T11:53:48;6.90;;;3.40;;
11709;SDS011;5911;51.036;6.972;2024-02-21T11:56:27;7.38;;;3.40;;
11709;SDS011;5911;51.036;6.972;2024-02-21T11:58:54;6.10;;;3.00;;
11709;SDS011;5911;51.036;6.972;2024-02-21T12:01:22;7.63;;;2.92;;
11709;SDS011;5911;51.036;6.972;2024-02-21T12:03:51;6.75;;;2.90;;
11709;SDS011;5911;51.036;6.972;2024-02-21T12:06:18;5.35;;;2.97;;
11709;SDS011;5911;51.036;6.972;2024-02-21T12:08:48;6.93;;;2.95;;
11709;SDS011;5911;51.036;6.972;2024-02-21T12:11:17;6.40;;;2.70;;
11709;SDS011;5911;51.036;6.972;2024-02-21T12:13:46;5.28;;;2.92;;
11709;SDS011;5911;51.036;6.972;2024-02-21T12:16:15;6.43;;;2.80;;
11709;SDS011;5911;51.036;6.972;2024-02-21T12:18:42;4.47;;;2.67;;
11709;SDS011;5911;51.036;6.972;2024-02-21T12:21:11;6.97;;;2.38;;
11709;SDS011;5911;51.036;6.972;2024-02-21T12:23:39;5.63;;;3.20;;
11709;SDS011;5911;51.036;6.972;2024-02-21T12:26:07;3.85;;;2.58;;
11709;SDS011;5911;51.036;6.972;2024-02-21T12:28:35;5.00;;;2.85;;
11709;SDS011;5911;51.036;6.972;2024-02-21T12:31:03;8.10;;;2.60;;
11709;SDS011;5911;51.036;6.972;2024-02-21T12:33:30;4.07;;;2.50;;
11709;SDS011;5911;51.036;6.972;2024-02-21T12:35:59;6.47;;;3.10;;
11709;SDS011;5911;51.036;6.972;2024-02-21T12:38:28;5.95;;;2.65;;
11709;SDS011;5911;51.036;6.972;2024-02-21T12:40:56;4.60;;;2.55;;
11709;SDS011;5911;51.036;6.972;2024-02-21T12:43:24;5.47;;;2.72;;
11709;SDS011;5911;51.036;6.972;2024-02-21T12:45:52;6.13;;;3.05;;
11709;SDS011;5911;51.036;6.972;2024-02-21T12:48:20;7.72;;;3.05;;
11709;SDS011;5911;51.036;6.972;2024-02-21T12:50:49;3.75;;;2.47;;
11709;SDS011;5911;51.036;6.972;2024-02-21T12:53:17;6.32;;;2.60;;
11709;SDS011;5911;51.036;6.972;2024-02-21T12:55:58;4.82;;;2.70;;
11709;SDS011;5911;51.036;6.972;2024-02-21T12:58:26;6.50;;;2.97;;
11709;SDS011;5911;51.036;6.972;2024-02-21T13:00:55;6.68;;;3.17;;
11709;SDS011;5911;51.036;6.972;2024-02-21T13:03:22;9.48;;;3.20;;
11709;SDS011;5911;51.036;6.972;2024-02-21T13:05:50;5.03;;;3.08;;
11709;SDS011;5911;51.036;6.972;2024-02-21T13:08:17;6.35;;;2.67;;
11709;SDS011;5911;51.036;6.972;2024-02-21T13:10:47;5.22;;;2.15;;
11709;SDS011;5911;51.036;6.972;2024-02-21T13:13:18;4.63;;;2.33;;
11709;SDS011;5911;51.036;6.972;2024-02-21T13:15:46;5.93;;;2.55;;
11709;SDS011;5911;51.036;6.972;2024-02-21T13:18:14;8.30;;;3.00;;
11709;SDS011;5911;51.036;6.972;2024-02-21T13:20:41;4.82;;;2.42;;
11709;SDS011;5911;51.036;6.972;2024-02-21T13:23:09;5.20;;;2.40;;
11709;SDS011;5911;51.036;6.972;2024-02-21T13:25:36;4.88;;;2.45;;
11709;SDS011;5911;51.036;6.972;2024-02-21T13:28:04;7.65;;;3.25;;
11709;SDS011;5911;51.036;6.972;2024-02-21T13:30:34;5.68;;;3.00;;
11709;SDS011;5911;51.036;6.972;2024-02-21T13:33:02;6.97;;;2.60;;
11709;SDS011;5911;51.036;6.972;2024-02-21T13:35:30;4.88;;;3.00;;
11709;SDS011;5911;51.036;6.972;2024-02-21T13:37:58;4.75;;;2.30;;
11709;SDS011;5911;51.036;6.972;2024-02-21T13:40:26;5.68;;;2.60;;
11709;SDS011;5911;51.036;6.972;2024-02-21T13:42:54;5.63;;;2.92;;
11709;SDS011;5911;51.036;6.972;2024-02-21T13:45:21;7.88;;;2.70;;
11709;SDS011;5911;51.036;6.972;2024-02-21T13:47:50;6.15;;;2.45;;
11709;SDS011;5911;51.036;6.972;2024-02-21T13:50:18;6.03;;;2.55;;
11709;SDS011;5911;51.036;6.972;2024-02-21T13:52:53;6.60;;;2.50;;
11709;SDS011;5911;51.036;6.972;2024-02-21T13:55:21;8.35;;;2.53;;
11709;SDS011;5911;51.036;6.972;2024-02-21T13:57:52;3.35;;;2.40;;
11709;SDS011;5911;51.036;6.972;2024-02-21T14:00:20;5.00;;;2.50;;
11709;SDS011;5911;51.036;6.972;2024-02-21T14:02:47;6.15;;;3.30;;
11709;SDS011;5911;51.036;6.972;2024-02-21T14:05:16;6.45;;;2.80;;
11709;SDS011;5911;51.036;6.972;2024-02-21T14:07:43;3.90;;;2.33;;
11709;SDS011;5911;51.036;6.972;2024-02-21T14:10:11;6.35;;;2.40;;
11709;SDS011;5911;51.036;6.972;2024-02-21T14:12:39;6.45;;;2.50;;
11709;SDS011;5911;51.036;6.972;2024-02-21T14:15:06;4.68;;;2.45;;
11709;SDS011;5911;51.036;6.972;2024-02-21T14:17:35;5.20;;;2.58;;
11709;SDS011;5911;51.036;6.972;2024-02-21T14:20:02;3.70;;;2.20;;
11709;SDS011;5911;51.036;6.972;2024-02-21T14:22:32;4.32;;;2.17;;
11709;SDS011;5911;51.036;6.972;2024-02-21T14:25:00;7.45;;;2.55;;
11709;SDS011;5911;51.036;6.972;2024-02-21T14:27:28;7.38;;;2.40;;
11709;SDS011;5911;51.036;6.972;2024-02-21T14:29:56;5.47;;;2.25;;
11709;SDS011;5911;51.036;6.972;2024-02-21T14:32:24;4.22;;;2.65;;
11709;SDS011;5911;51.036;6.972;2024-02-21T14:34:51;5.38;;;2.55;;
11709;SDS011;5911;51.036;6.972;2024-02-21T14:37:19;5.97;;;2.80;;
11709;SDS011;5911;51.036;6.972;2024-02-21T14:39:49;4.07;;;2.60;;
11709;SDS011;5911;51.036;6.972;2024-02-21T14:42:16;4.45;;;2.20;;
11709;SDS011;5911;51.036;6.972;2024-02-21T14:44:44;6.07;;;2.28;;
11709;SDS011;5911;51.036;6.972;2024-02-21T14:47:12;4.55;;;2.38;;
11709;SDS011;5911;51.036;6.972;2024-02-21T14:49:39;5.22;;;2.25;;
11709;SDS011;5911;51.036;6.972;2024-02-21T14:52:07;5.57;;;2.45;;
11709;SDS011;5911;51.036;6.972;2024-02-21T14:54:37;3.60;;;2.20;;
11709;SDS011;5911;51.036;6.972;2024-02-21T14:57:07;4.70;;;2.30;;
11709;SDS011;5911;51.036;6.972;2024-02-21T14:59:34;5.57;;;2.60;;
11709;SDS011;5911;51.036;6.972;2024-02-21T15:02:02;4.95;;;2.30;;
11709;SDS011;5911;51.036;6.972;2024-02-21T15:04:29;6.38;;;2.67;;